createdAt,value
2016-09-26T00:00:32.988Z,0
2016-09-26T00:01:32.647Z,0
2016-09-26T00:02:32.406Z,0
2016-09-26T00:03:32.980Z,0
2016-09-26T00:04:32.703Z,0
2016-09-26T00:05:33.037Z,0
2016-09-26T00:06:33.048Z,0
2016-09-26T00:07:32.757Z,0
2016-09-26T00:08:32.938Z,0
2016-09-26T00:09:32.872Z,0
2016-09-26T00:10:33.159Z,0
2016-09-26T00:11:32.885Z,0
2016-09-26T00:12:33.305Z,0
2016-09-26T00:13:32.916Z,0
2016-09-26T00:14:33.299Z,0
2016-09-26T00:15:32.951Z,0
2016-09-26T00:16:33.030Z,0
2016-09-26T00:17:33.305Z,0
2016-09-26T00:18:32.688Z,0
2016-09-26T00:19:33.348Z,0
2016-09-26T00:20:33.367Z,0
2016-09-26T00:21:33.077Z,0
2016-09-26T00:22:33.451Z,0
2016-09-26T00:23:33.439Z,0
2016-09-26T00:24:33.457Z,0
2016-09-26T00:25:33.797Z,0
2016-09-26T00:26:33.500Z,0
2016-09-26T00:27:33.299Z,0
2016-09-26T00:28:33.560Z,0
2016-09-26T00:29:33.268Z,0
2016-09-26T00:30:33.586Z,0
2016-09-26T00:31:33.286Z,0
2016-09-26T00:32:33.367Z,0
2016-09-26T00:33:33.658Z,0
2016-09-26T00:34:33.686Z,0
2016-09-26T00:35:34.077Z,0
2016-09-26T00:36:33.822Z,0
2016-09-26T00:37:33.746Z,0
2016-09-26T00:38:33.851Z,0
2016-09-26T00:39:34.112Z,0
2016-09-26T00:40:33.818Z,0
2016-09-26T00:41:33.509Z,0
2016-09-26T00:42:33.566Z,0
2016-09-26T00:43:33.890Z,0
2016-09-26T00:44:33.903Z,0
2016-09-26T00:45:34.099Z,0
2016-09-26T00:46:33.643Z,0
2016-09-26T00:47:34.348Z,0
2016-09-26T00:48:33.986Z,0
2016-09-26T00:49:33.709Z,0
2016-09-26T00:50:34.047Z,0
2016-09-26T00:51:33.758Z,0
2016-09-26T00:52:33.817Z,0
2016-09-26T00:53:34.418Z,0
2016-09-26T00:54:34.139Z,0
2016-09-26T00:55:34.147Z,0
2016-09-26T00:56:34.177Z,0
2016-09-26T00:57:34.253Z,0
2016-09-26T00:58:33.603Z,0
2016-09-26T00:59:33.940Z,0
2016-09-26T01:00:33.965Z,0
2016-09-26T01:01:34.293Z,0
2016-09-26T01:02:34.318Z,0
2016-09-26T01:03:34.333Z,0
2016-09-26T01:04:34.407Z,0
2016-09-26T01:05:33.761Z,0
2016-09-26T01:06:34.517Z,0
2016-09-26T01:07:34.490Z,0
2016-09-26T01:08:34.145Z,0
2016-09-26T01:09:34.482Z,0
2016-09-26T01:10:34.852Z,0
2016-09-26T01:11:34.909Z,0
2016-09-26T01:12:34.375Z,0
2016-09-26T01:13:34.879Z,0
2016-09-26T01:14:34.569Z,0
2016-09-26T01:15:34.299Z,0
2016-09-26T01:16:34.628Z,0
2016-09-26T01:17:34.785Z,0
2016-09-26T01:18:34.354Z,0
2016-09-26T01:19:34.380Z,0
2016-09-26T01:20:34.413Z,0
2016-09-26T01:21:34.731Z,0
2016-09-26T01:22:34.454Z,0
2016-09-26T01:23:35.116Z,0
2016-09-26T01:24:34.804Z,0
2016-09-26T01:25:34.542Z,0
2016-09-26T01:26:34.234Z,0
2016-09-26T01:27:34.600Z,0
2016-09-26T01:28:34.950Z,0
2016-09-26T01:29:34.733Z,0
2016-09-26T01:30:35.250Z,0
2016-09-26T01:31:34.980Z,0
2016-09-26T01:32:34.707Z,0
2016-09-26T01:33:35.028Z,0
2016-09-26T01:34:35.415Z,0
2016-09-26T01:35:34.468Z,0
2016-09-26T01:36:35.081Z,0
2016-09-26T01:37:35.513Z,0
2016-09-26T01:38:35.134Z,0
2016-09-26T01:39:34.529Z,0
2016-09-26T01:40:35.218Z,0
2016-09-26T01:41:35.195Z,0
2016-09-26T01:42:35.235Z,0
2016-09-26T01:43:35.230Z,0
2016-09-26T01:44:34.936Z,0
2016-09-26T01:45:35.323Z,0
2016-09-26T01:46:35.005Z,0
2016-09-26T01:47:35.342Z,0
2016-09-26T01:48:35.089Z,0
2016-09-26T01:49:35.376Z,0
2016-09-26T01:50:35.082Z,0
2016-09-26T01:51:35.112Z,0
2016-09-26T01:52:35.786Z,0
2016-09-26T01:53:35.150Z,0
2016-09-26T01:54:35.493Z,0
2016-09-26T01:55:35.239Z,0
2016-09-26T01:56:35.215Z,0
2016-09-26T01:57:35.291Z,0
2016-09-26T01:58:35.911Z,0
2016-09-26T01:59:35.361Z,0
2016-09-26T02:00:35.291Z,0
2016-09-26T02:01:35.727Z,0
2016-09-26T02:02:35.397Z,0
2016-09-26T02:03:35.682Z,0
2016-09-26T02:04:35.088Z,0
2016-09-26T02:05:35.429Z,0
2016-09-26T02:06:35.151Z,0
2016-09-26T02:07:36.139Z,0
2016-09-26T02:08:35.782Z,0
2016-09-26T02:09:35.809Z,0
2016-09-26T02:10:35.570Z,0
2016-09-26T02:11:35.551Z,0
2016-09-26T02:12:36.028Z,0
2016-09-26T02:13:35.906Z,0
2016-09-26T02:14:35.672Z,0
2016-09-26T02:15:35.963Z,0
2016-09-26T02:16:35.981Z,0
2016-09-26T02:17:35.685Z,0
2016-09-26T02:18:36.027Z,0
2016-09-26T02:19:36.019Z,0
2016-09-26T02:20:35.751Z,0
2016-09-26T02:21:36.094Z,0
2016-09-26T02:22:35.493Z,0
2016-09-26T02:23:35.837Z,0
2016-09-26T02:24:36.490Z,0
2016-09-26T02:25:36.222Z,0
2016-09-26T02:26:36.203Z,0
2016-09-26T02:27:35.960Z,0
2016-09-26T02:28:35.920Z,0
2016-09-26T02:29:35.953Z,0
2016-09-26T02:30:35.652Z,0
2016-09-26T02:31:36.008Z,0
2016-09-26T02:32:36.015Z,0
2016-09-26T02:33:36.355Z,0
2016-09-26T02:34:36.741Z,0
2016-09-26T02:35:36.772Z,0
2016-09-26T02:36:36.420Z,0
2016-09-26T02:37:36.472Z,0
2016-09-26T02:38:36.202Z,0
2016-09-26T02:39:36.483Z,0
2016-09-26T02:40:36.238Z,0
2016-09-26T02:41:36.224Z,0
2016-09-26T02:42:36.910Z,0
2016-09-26T02:43:36.280Z,0
2016-09-26T02:44:36.302Z,0
2016-09-26T02:45:36.300Z,0
2016-09-26T02:46:36.944Z,0
2016-09-26T02:47:36.350Z,0
2016-09-26T02:48:37.037Z,0
2016-09-26T02:49:36.383Z,0
2016-09-26T02:50:36.734Z,0
2016-09-26T02:51:36.750Z,0
2016-09-26T02:52:36.172Z,0
2016-09-26T02:53:37.098Z,0
2016-09-26T02:54:36.529Z,0
2016-09-26T02:55:37.155Z,0
2016-09-26T02:56:36.912Z,0
2016-09-26T02:57:37.321Z,0
2016-09-26T02:58:36.284Z,0
2016-09-26T02:59:36.955Z,0
2016-09-26T03:00:36.947Z,0
2016-09-26T03:01:36.660Z,0
2016-09-26T03:02:36.984Z,0
2016-09-26T03:03:37.024Z,0
2016-09-26T03:04:37.201Z,0
2016-09-26T03:05:37.050Z,0
2016-09-26T03:06:36.773Z,0
2016-09-26T03:07:37.425Z,0
2016-09-26T03:08:37.126Z,0
2016-09-26T03:09:37.298Z,0
2016-09-26T03:10:37.165Z,0
2016-09-26T03:11:36.635Z,0
2016-09-26T03:12:37.290Z,0
2016-09-26T03:13:37.272Z,0
2016-09-26T03:14:37.560Z,0
2016-09-26T03:15:36.975Z,0
2016-09-26T03:16:36.999Z,0
2016-09-26T03:17:37.325Z,0
2016-09-26T03:18:37.017Z,0
2016-09-26T03:19:37.050Z,0
2016-09-26T03:20:37.400Z,0
2016-09-26T03:21:37.498Z,0
2016-09-26T03:22:37.233Z,0
2016-09-26T03:23:37.875Z,0
2016-09-26T03:24:37.792Z,0
2016-09-26T03:25:37.193Z,0
2016-09-26T03:26:37.220Z,0
2016-09-26T03:27:37.236Z,0
2016-09-26T03:28:37.556Z,0
2016-09-26T03:29:37.295Z,0
2016-09-26T03:30:37.286Z,0
2016-09-26T03:31:37.652Z,0
2016-09-26T03:32:37.333Z,0
2016-09-26T03:33:37.385Z,0
2016-09-26T03:34:37.374Z,0
2016-09-26T03:35:38.076Z,0
2016-09-26T03:36:37.724Z,0
2016-09-26T03:37:37.855Z,0
2016-09-26T03:38:37.763Z,0
2016-09-26T03:39:37.497Z,0
2016-09-26T03:40:37.794Z,0
2016-09-26T03:41:37.846Z,0
2016-09-26T03:42:38.175Z,0
2016-09-26T03:43:37.575Z,0
2016-09-26T03:44:37.914Z,0
2016-09-26T03:45:37.616Z,0
2016-09-26T03:46:37.624Z,0
2016-09-26T03:47:37.945Z,0
2016-09-26T03:48:37.744Z,0
2016-09-26T03:49:38.015Z,0
2016-09-26T03:50:38.354Z,0
2016-09-26T03:51:37.755Z,0
2016-09-26T03:52:38.385Z,0
2016-09-26T03:53:38.158Z,0
2016-09-26T03:54:38.105Z,0
2016-09-26T03:55:38.252Z,0
2016-09-26T03:56:38.152Z,0
2016-09-26T03:57:37.914Z,0
2016-09-26T03:58:37.887Z,0
2016-09-26T03:59:37.920Z,0
2016-09-26T04:00:38.239Z,0
2016-09-26T04:01:38.557Z,0
2016-09-26T04:02:38.303Z,0
2016-09-26T04:03:37.993Z,0
2016-09-26T04:04:37.994Z,0
2016-09-26T04:05:38.644Z,0
2016-09-26T04:06:38.675Z,0
2016-09-26T04:07:37.803Z,0
2016-09-26T04:08:37.806Z,0
2016-09-26T04:09:38.431Z,0
2016-09-26T04:10:38.526Z,0
2016-09-26T04:11:37.863Z,0
2016-09-26T04:12:38.531Z,0
2016-09-26T04:13:38.505Z,0
2016-09-26T04:14:37.902Z,0
2016-09-26T04:15:38.854Z,0
2016-09-26T04:16:38.686Z,0
2016-09-26T04:17:38.594Z,0
2016-09-26T04:18:38.619Z,0
2016-09-26T04:19:38.009Z,0
2016-09-26T04:20:38.361Z,0
2016-09-26T04:21:38.576Z,0
2016-09-26T04:22:38.735Z,0
2016-09-26T04:23:38.764Z,0
2016-09-26T04:24:38.494Z,0
2016-09-26T04:25:39.107Z,0
2016-09-26T04:26:38.475Z,0
2016-09-26T04:27:38.823Z,0
2016-09-26T04:28:39.152Z,0
2016-09-26T04:29:38.935Z,0
2016-09-26T04:30:38.296Z,0
2016-09-26T04:31:38.604Z,0
2016-09-26T04:32:39.032Z,0
2016-09-26T04:33:39.562Z,0
2016-09-26T04:34:38.985Z,0
2016-09-26T04:35:38.474Z,0
2016-09-26T04:36:39.544Z,0
2016-09-26T04:37:39.022Z,0
2016-09-26T04:38:38.420Z,0
2016-09-26T04:39:39.573Z,0
2016-09-26T04:40:39.116Z,48
2016-09-26T04:41:38.935Z,48
2016-09-26T04:42:39.164Z,0
2016-09-26T04:43:38.858Z,0
2016-09-26T04:44:39.300Z,0
2016-09-26T04:45:39.625Z,0
2016-09-26T04:46:38.594Z,4
2016-09-26T04:47:39.061Z,4
2016-09-26T04:48:39.255Z,4
2016-09-26T04:49:39.290Z,4
2016-09-26T04:50:39.293Z,4
2016-09-26T04:51:39.635Z,8
2016-09-26T04:52:39.654Z,4
2016-09-26T04:53:39.041Z,8
2016-09-26T04:54:39.150Z,12
2016-09-26T04:55:39.709Z,8
2016-09-26T04:56:39.162Z,8
2016-09-26T04:57:39.135Z,16
2016-09-26T04:58:39.155Z,64
2016-09-26T04:59:39.853Z,68
2016-09-26T05:00:39.194Z,72
2016-09-26T05:01:39.652Z,72
2016-09-26T05:02:39.275Z,80
2016-09-26T05:03:39.300Z,84
2016-09-26T05:04:39.692Z,40
2016-09-26T05:05:39.661Z,48
2016-09-26T05:06:39.674Z,52
2016-09-26T05:07:40.001Z,60
2016-09-26T05:08:39.975Z,68
2016-09-26T05:09:39.757Z,72
2016-09-26T05:10:39.432Z,84
2016-09-26T05:11:40.157Z,88
2016-09-26T05:12:40.054Z,96
2016-09-26T05:13:39.457Z,104
2016-09-26T05:14:39.794Z,108
2016-09-26T05:15:40.114Z,120
2016-09-26T05:16:39.842Z,128
2016-09-26T05:17:39.864Z,132
2016-09-26T05:18:39.821Z,144
2016-09-26T05:19:39.782Z,156
2016-09-26T05:20:39.923Z,172
2016-09-26T05:21:39.932Z,180
2016-09-26T05:22:39.963Z,192
2016-09-26T05:23:39.986Z,204
2016-09-26T05:24:39.998Z,220
2016-09-26T05:25:39.813Z,236
2016-09-26T05:26:39.791Z,260
2016-09-26T05:27:40.063Z,280
2016-09-26T05:28:40.071Z,292
2016-09-26T05:29:40.110Z,288
2016-09-26T05:30:40.432Z,284
2016-09-26T05:31:40.217Z,292
2016-09-26T05:32:39.853Z,292
2016-09-26T05:33:40.597Z,308
2016-09-26T05:34:40.213Z,308
2016-09-26T05:35:39.911Z,308
2016-09-26T05:36:40.239Z,312
2016-09-26T05:37:39.804Z,324
2016-09-26T05:38:40.299Z,340
2016-09-26T05:39:40.301Z,364
2016-09-26T05:40:40.020Z,380
2016-09-26T05:41:40.349Z,404
2016-09-26T05:42:40.380Z,428
2016-09-26T05:43:40.386Z,456
2016-09-26T05:44:40.431Z,476
2016-09-26T05:45:39.870Z,484
2016-09-26T05:46:39.843Z,488
2016-09-26T05:47:40.189Z,504
2016-09-26T05:48:39.893Z,528
2016-09-26T05:49:40.533Z,548
2016-09-26T05:50:39.932Z,588
2016-09-26T05:51:40.560Z,628
2016-09-26T05:52:40.272Z,676
2016-09-26T05:53:40.912Z,720
2016-09-26T05:54:40.022Z,752
2016-09-26T05:55:40.782Z,788
2016-09-26T05:56:40.699Z,816
2016-09-26T05:57:40.440Z,844
2016-09-26T05:58:40.410Z,872
2016-09-26T05:59:40.431Z,908
2016-09-26T06:00:41.068Z,948
2016-09-26T06:01:40.771Z,988
2016-09-26T06:02:40.590Z,1040
2016-09-26T06:03:40.812Z,1104
2016-09-26T06:04:40.270Z,1168
2016-09-26T06:05:40.658Z,1252
2016-09-26T06:06:40.260Z,1344
2016-09-26T06:07:40.942Z,1416
2016-09-26T06:08:40.929Z,1468
2016-09-26T06:09:40.997Z,1484
2016-09-26T06:10:40.698Z,1496
2016-09-26T06:11:40.694Z,1524
2016-09-26T06:12:40.712Z,1564
2016-09-26T06:13:40.820Z,1644
2016-09-26T06:14:41.115Z,1732
2016-09-26T06:15:41.071Z,1824
2016-09-26T06:16:40.470Z,1900
2016-09-26T06:17:41.118Z,1968
2016-09-26T06:18:40.519Z,2060
2016-09-26T06:19:41.169Z,2156
2016-09-26T06:20:41.200Z,2248
2016-09-26T06:21:41.217Z,2332
2016-09-26T06:22:41.216Z,2412
2016-09-26T06:23:41.567Z,2500
2016-09-26T06:24:41.648Z,2592
2016-09-26T06:25:41.352Z,2672
2016-09-26T06:26:41.449Z,2776
2016-09-26T06:27:40.772Z,2904
2016-09-26T06:28:41.371Z,3080
2016-09-26T06:29:41.384Z,3260
2016-09-26T06:30:40.792Z,3352
2016-09-26T06:31:41.409Z,3404
2016-09-26T06:32:41.737Z,3432
2016-09-26T06:33:41.771Z,3420
2016-09-26T06:34:41.510Z,3516
2016-09-26T06:35:41.601Z,3604
2016-09-26T06:36:41.285Z,3712
2016-09-26T06:37:41.620Z,3860
2016-09-26T06:38:41.277Z,3996
2016-09-26T06:39:41.595Z,4072
2016-09-26T06:40:41.602Z,4056
2016-09-26T06:41:41.641Z,4052
2016-09-26T06:42:41.086Z,4124
2016-09-26T06:43:41.682Z,4192
2016-09-26T06:44:41.365Z,4256
2016-09-26T06:45:41.710Z,4216
2016-09-26T06:46:41.745Z,4080
2016-09-26T06:47:41.212Z,3964
2016-09-26T06:48:41.801Z,3988
2016-09-26T06:49:41.551Z,4076
2016-09-26T06:50:41.507Z,4112
2016-09-26T06:51:42.170Z,4204
2016-09-26T06:52:41.557Z,4316
2016-09-26T06:53:42.219Z,4368
2016-09-26T06:54:42.259Z,4260
2016-09-26T06:55:41.925Z,4296
2016-09-26T06:56:41.644Z,4244
2016-09-26T06:57:41.975Z,4012
2016-09-26T06:58:41.706Z,3904
2016-09-26T06:59:42.030Z,3924
2016-09-26T07:00:42.639Z,4056
2016-09-26T07:01:42.081Z,3968
2016-09-26T07:02:42.715Z,3768
2016-09-26T07:03:41.808Z,3524
2016-09-26T07:04:41.519Z,3492
2016-09-26T07:05:42.174Z,3420
2016-09-26T07:06:42.379Z,3448
2016-09-26T07:07:42.350Z,3620
2016-09-26T07:08:41.916Z,4032
2016-09-26T07:09:41.929Z,4472
2016-09-26T07:10:42.407Z,5016
2016-09-26T07:11:42.281Z,4432
2016-09-26T07:12:41.689Z,4348
2016-09-26T07:13:42.012Z,4336
2016-09-26T07:14:41.730Z,4400
2016-09-26T07:15:42.389Z,4896
2016-09-26T07:16:42.086Z,4724
2016-09-26T07:17:42.465Z,4380
2016-09-26T07:18:42.749Z,4256
2016-09-26T07:19:42.718Z,4172
2016-09-26T07:20:42.170Z,4148
2016-09-26T07:21:42.599Z,9920
2016-09-26T07:22:42.929Z,10432
2016-09-26T07:23:42.873Z,7004
2016-09-26T07:24:42.898Z,7416
2016-09-26T07:25:42.916Z,6596
2016-09-26T07:26:42.903Z,6344
2016-09-26T07:27:42.529Z,6192
2016-09-26T07:28:42.710Z,6208
2016-09-26T07:29:42.997Z,6216
2016-09-26T07:30:43.039Z,6344
2016-09-26T07:31:42.880Z,6496
2016-09-26T07:32:43.058Z,6672
2016-09-26T07:33:42.498Z,6772
2016-09-26T07:34:42.169Z,6720
2016-09-26T07:35:42.853Z,6388
2016-09-26T07:36:42.529Z,6696
2016-09-26T07:37:42.596Z,6792
2016-09-26T07:38:42.279Z,6544
2016-09-26T07:39:42.916Z,6400
2016-09-26T07:40:42.699Z,6200
2016-09-26T07:41:42.648Z,6028
2016-09-26T07:42:42.558Z,5880
2016-09-26T07:43:43.185Z,5792
2016-09-26T07:44:42.549Z,5752
2016-09-26T07:45:43.041Z,5724
2016-09-26T07:46:42.901Z,5732
2016-09-26T07:47:42.750Z,5732
2016-09-26T07:48:43.171Z,5720
2016-09-26T07:49:43.121Z,5732
2016-09-26T07:50:43.147Z,5736
2016-09-26T07:51:43.171Z,5724
2016-09-26T07:52:43.546Z,5768
2016-09-26T07:53:43.209Z,6040
2016-09-26T07:54:42.677Z,6140
2016-09-26T07:55:43.272Z,6036
2016-09-26T07:56:42.986Z,5828
2016-09-26T07:57:43.434Z,5856
2016-09-26T07:58:43.026Z,5692
2016-09-26T07:59:43.452Z,5368
2016-09-26T08:00:43.098Z,5308
2016-09-26T08:01:43.141Z,5396
2016-09-26T08:02:42.881Z,5248
2016-09-26T08:03:42.827Z,5248
2016-09-26T08:04:43.479Z,5508
2016-09-26T08:05:43.801Z,5356
2016-09-26T08:06:43.840Z,5784
2016-09-26T08:07:43.322Z,5776
2016-09-26T08:08:43.565Z,5816
2016-09-26T08:09:43.334Z,5728
2016-09-26T08:10:43.312Z,5832
2016-09-26T08:11:43.680Z,5860
2016-09-26T08:12:43.697Z,5880
2016-09-26T08:13:43.450Z,5904
2016-09-26T08:14:43.399Z,5896
2016-09-26T08:15:43.087Z,5876
2016-09-26T08:16:43.442Z,5880
2016-09-26T08:17:43.852Z,5880
2016-09-26T08:18:43.791Z,5880
2016-09-26T08:19:43.506Z,5760
2016-09-26T08:20:43.520Z,5636
2016-09-26T08:21:43.541Z,5312
2016-09-26T08:22:43.889Z,5236
2016-09-26T08:23:43.977Z,5192
2016-09-26T08:24:44.259Z,5612
2016-09-26T08:25:43.712Z,6192
2016-09-26T08:26:43.673Z,6856
2016-09-26T08:27:44.374Z,7528
2016-09-26T08:28:43.720Z,7768
2016-09-26T08:29:43.731Z,8100
2016-09-26T08:30:43.780Z,8096
2016-09-26T08:31:43.470Z,8368
2016-09-26T08:32:44.483Z,8692
2016-09-26T08:33:44.163Z,8692
2016-09-26T08:34:44.211Z,8792
2016-09-26T08:35:44.490Z,8928
2016-09-26T08:36:44.416Z,8824
2016-09-26T08:37:44.572Z,8660
2016-09-26T08:38:44.565Z,8544
2016-09-26T08:39:44.579Z,8300
2016-09-26T08:40:44.303Z,8020
2016-09-26T08:42:16.320Z,7720
2016-09-26T08:42:44.331Z,7624
2016-09-26T08:43:44.401Z,7364
2016-09-26T08:44:44.080Z,6996
2016-09-26T08:45:44.419Z,6644
2016-09-26T08:46:43.813Z,6256
2016-09-26T08:47:44.787Z,6072
2016-09-26T08:48:43.881Z,5796
2016-09-26T08:49:44.814Z,5672
2016-09-26T08:50:43.921Z,5600
2016-09-26T08:51:44.260Z,5680
2016-09-26T08:52:43.969Z,5628
2016-09-26T08:53:44.610Z,5584
2016-09-26T08:54:44.942Z,5544
2016-09-26T08:55:44.981Z,5504
2016-09-26T08:56:44.732Z,5484
2016-09-26T08:57:44.771Z,5460
2016-09-26T08:58:44.740Z,5440
2016-09-26T08:59:44.462Z,5416
2016-09-26T09:00:45.116Z,5412
2016-09-26T09:01:44.809Z,5412
2016-09-26T09:02:45.142Z,5396
2016-09-26T09:03:44.909Z,5368
2016-09-26T09:04:44.260Z,5344
2016-09-26T09:05:44.906Z,5328
2016-09-26T09:06:44.740Z,5304
2016-09-26T09:07:45.000Z,5296
2016-09-26T09:08:45.389Z,5296
2016-09-26T09:09:45.367Z,5300
2016-09-26T09:10:44.726Z,5296
2016-09-26T09:11:45.060Z,5300
2016-09-26T09:12:45.175Z,5328
2016-09-26T09:13:45.191Z,5356
2016-09-26T09:14:44.829Z,5380
2016-09-26T09:15:44.840Z,5424
2016-09-26T09:16:44.867Z,5444
2016-09-26T09:17:44.895Z,5480
2016-09-26T09:18:45.526Z,5560
2016-09-26T09:19:44.953Z,5640
2016-09-26T09:20:44.971Z,5652
2016-09-26T09:21:45.584Z,5656
2016-09-26T09:22:45.820Z,5692
2016-09-26T09:23:45.913Z,5728
2016-09-26T09:24:45.154Z,5744
2016-09-26T09:25:45.848Z,5748
2016-09-26T09:26:45.642Z,5712
2016-09-26T09:27:45.220Z,5672
2016-09-26T09:28:45.219Z,5632
2016-09-26T09:29:45.539Z,5668
2016-09-26T09:30:45.397Z,5752
2016-09-26T09:31:45.584Z,5824
2016-09-26T09:32:45.248Z,5940
2016-09-26T09:33:45.556Z,6156
2016-09-26T09:34:45.311Z,6312
2016-09-26T09:35:45.640Z,6412
2016-09-26T09:36:45.752Z,6588
2016-09-26T09:37:46.036Z,6680
2016-09-26T09:38:45.759Z,6784
2016-09-26T09:39:45.595Z,6828
2016-09-26T09:40:46.180Z,6940
2016-09-26T09:41:45.808Z,7088
2016-09-26T09:42:45.710Z,7228
2016-09-26T09:43:45.579Z,7332
2016-09-26T09:44:45.546Z,7684
2016-09-26T09:45:45.896Z,8092
2016-09-26T09:46:45.922Z,8684
2016-09-26T09:47:45.666Z,9336
2016-09-26T09:48:45.890Z,10236
2016-09-26T09:49:45.732Z,10904
2016-09-26T09:50:45.419Z,11456
2016-09-26T09:51:46.351Z,11760
2016-09-26T09:52:45.746Z,11712
2016-09-26T09:53:45.829Z,11652
2016-09-26T09:54:46.108Z,11116
2016-09-26T09:55:46.451Z,10552
2016-09-26T09:56:49.434Z,10096
2016-09-26T09:57:45.878Z,9956
2016-09-26T09:58:45.896Z,10056
2016-09-26T09:59:46.549Z,10408
2016-09-26T10:00:46.285Z,10508
2016-09-26T10:01:45.993Z,10132
2016-09-26T10:02:46.062Z,9660
2016-09-26T10:03:46.046Z,9736
2016-09-26T10:04:45.771Z,9824
2016-09-26T10:05:46.390Z,9312
2016-09-26T10:06:46.720Z,8748
2016-09-26T10:07:45.831Z,8576
2016-09-26T10:08:46.479Z,8056
2016-09-26T10:09:46.670Z,8012
2016-09-26T10:10:45.920Z,8272
2016-09-26T10:11:46.851Z,8708
2016-09-26T10:12:46.640Z,9100
2016-09-26T10:13:46.609Z,8708
2016-09-26T10:14:46.640Z,8388
2016-09-26T10:15:46.731Z,8356
2016-09-26T10:16:46.681Z,8536
2016-09-26T10:17:46.434Z,8800
2016-09-26T10:18:46.781Z,8588
2016-09-26T10:19:47.080Z,8632
2016-09-26T10:20:46.917Z,8716
2016-09-26T10:21:46.220Z,9072
2016-09-26T10:22:46.244Z,9336
2016-09-26T10:23:46.566Z,9348
2016-09-26T10:24:47.221Z,9536
2016-09-26T10:25:47.292Z,9472
2016-09-26T10:26:46.963Z,9460
2016-09-26T10:27:47.032Z,9548
2016-09-26T10:28:47.040Z,9680
2016-09-26T10:29:47.072Z,9676
2016-09-26T10:30:46.822Z,9760
2016-09-26T10:31:47.089Z,9952
2016-09-26T10:32:47.409Z,9804
2016-09-26T10:33:47.472Z,10044
2016-09-26T10:34:47.183Z,10608
2016-09-26T10:35:47.590Z,11180
2016-09-26T10:36:47.621Z,11508
2016-09-26T10:37:47.627Z,12152
2016-09-26T10:38:47.680Z,12772
2016-09-26T10:39:47.032Z,13348
2016-09-26T10:40:47.307Z,14196
2016-09-26T10:41:47.657Z,13816
2016-09-26T10:42:47.445Z,13028
2016-09-26T10:43:47.443Z,12328
2016-09-26T10:44:47.177Z,11884
2016-09-26T10:45:47.152Z,11096
2016-09-26T10:46:47.543Z,10452
2016-09-26T10:47:46.901Z,10204
2016-09-26T10:48:46.949Z,9548
2016-09-26T10:49:47.552Z,8708
2016-09-26T10:50:47.331Z,8040
2016-09-26T10:51:47.322Z,7504
2016-09-26T10:52:47.390Z,6984
2016-09-26T10:53:47.429Z,6708
2016-09-26T10:54:47.082Z,6764
2016-09-26T10:55:47.103Z,6920
2016-09-26T10:56:48.146Z,7240
2016-09-26T10:57:48.239Z,7376
2016-09-26T10:58:47.520Z,6836
2016-09-26T10:59:48.193Z,6344
2016-09-26T11:00:47.852Z,6020
2016-09-26T11:01:47.877Z,5824
2016-09-26T11:02:48.267Z,5732
2016-09-26T11:03:47.639Z,5716
2016-09-26T11:04:47.717Z,5676
2016-09-26T11:05:48.001Z,5680
2016-09-26T11:06:47.785Z,5712
2016-09-26T11:07:47.784Z,5740
2016-09-26T11:08:48.072Z,5820
2016-09-26T11:09:47.465Z,5928
2016-09-26T11:10:47.849Z,6032
2016-09-26T11:11:48.151Z,6080
2016-09-26T11:12:47.912Z,6132
2016-09-26T11:13:48.222Z,6380
2016-09-26T11:14:48.234Z,6780
2016-09-26T11:15:48.553Z,7024
2016-09-26T11:16:48.268Z,6964
2016-09-26T11:17:48.093Z,6724
2016-09-26T11:18:48.332Z,6492
2016-09-26T11:19:48.375Z,6008
2016-09-26T11:20:48.390Z,5868
2016-09-26T11:21:48.068Z,5716
2016-09-26T11:22:48.359Z,5676
2016-09-26T11:23:48.359Z,5652
2016-09-26T11:24:48.742Z,5612
2016-09-26T11:25:48.727Z,5404
2016-09-26T11:26:49.035Z,5332
2016-09-26T11:27:48.361Z,5720
2016-09-26T11:28:48.029Z,5532
2016-09-26T11:29:48.620Z,5708
2016-09-26T11:30:48.695Z,5720
2016-09-26T11:31:48.664Z,5928
2016-09-26T11:32:49.004Z,6264
2016-09-26T11:33:49.028Z,6736
2016-09-26T11:34:48.753Z,7244
2016-09-26T11:35:48.898Z,7752
2016-09-26T11:36:48.807Z,8332
2016-09-26T11:37:48.569Z,8684
2016-09-26T11:38:48.220Z,8892
2016-09-26T11:39:48.268Z,9192
2016-09-26T11:40:49.219Z,9060
2016-09-26T11:41:49.245Z,8712
2016-09-26T11:42:48.690Z,8400
2016-09-26T11:43:49.301Z,8104
2016-09-26T11:44:48.688Z,7968
2016-09-26T11:45:49.066Z,7768
2016-09-26T11:46:48.756Z,7572
2016-09-26T11:47:48.776Z,7524
2016-09-26T11:48:49.178Z,7452
2016-09-26T11:49:48.837Z,7468
2016-09-26T11:50:49.179Z,7264
2016-09-26T11:51:49.198Z,7032
2016-09-26T11:52:49.006Z,6868
2016-09-26T11:53:49.257Z,6872
2016-09-26T11:54:49.571Z,6884
2016-09-26T11:55:49.324Z,6712
2016-09-26T11:56:49.137Z,6612
2016-09-26T11:57:49.873Z,6520
2016-09-26T11:58:49.120Z,6432
2016-09-26T11:59:49.457Z,6384
2016-09-26T12:00:49.425Z,6540
2016-09-26T12:01:49.477Z,6264
2016-09-26T12:02:49.523Z,6368
2016-09-26T12:03:49.827Z,6180
2016-09-26T12:04:49.955Z,6196
2016-09-26T12:05:49.877Z,6304
2016-09-26T12:06:49.326Z,6452
2016-09-26T12:07:49.366Z,6640
2016-09-26T12:08:49.966Z,6776
2016-09-26T12:09:49.998Z,6884
2016-09-26T12:10:49.387Z,7228
2016-09-26T12:11:49.758Z,7412
2016-09-26T12:12:49.496Z,7328
2016-09-26T12:13:49.696Z,7624
2016-09-26T12:14:49.209Z,7596
2016-09-26T12:15:49.878Z,7556
2016-09-26T12:16:49.858Z,7528
2016-09-26T12:17:49.677Z,7408
2016-09-26T12:18:50.225Z,7744
2016-09-26T12:19:50.240Z,7796
2016-09-26T12:20:49.657Z,7796
2016-09-26T12:21:49.687Z,7820
2016-09-26T12:22:50.017Z,7496
2016-09-26T12:23:49.798Z,7560
2016-09-26T12:24:49.778Z,7652
2016-09-26T12:25:49.798Z,7712
2016-09-26T12:26:49.827Z,7668
2016-09-26T12:27:50.158Z,7604
2016-09-26T12:28:49.895Z,7568
2016-09-26T12:29:49.907Z,7612
2016-09-26T12:30:50.248Z,7972
2016-09-26T12:31:49.949Z,8200
2016-09-26T12:32:50.297Z,8388
2016-09-26T12:33:49.689Z,8624
2016-09-26T12:34:50.141Z,8912
2016-09-26T12:35:50.358Z,9008
2016-09-26T12:36:50.095Z,9152
2016-09-26T12:37:50.567Z,9248
2016-09-26T12:38:50.460Z,9004
2016-09-26T12:39:50.480Z,9000
2016-09-26T12:40:50.817Z,8820
2016-09-26T12:41:50.633Z,8560
2016-09-26T12:42:50.539Z,8472
2016-09-26T12:44:50.297Z,8080
2016-09-26T12:45:50.009Z,8036
2016-09-26T12:46:50.350Z,8124
2016-09-26T12:47:51.011Z,8160
2016-09-26T12:48:50.708Z,8048
2016-09-26T12:49:50.433Z,7904
2016-09-26T12:50:50.824Z,7996
2016-09-26T12:51:50.489Z,8084
2016-09-26T12:52:50.850Z,8536
2016-09-26T12:53:50.850Z,8752
2016-09-26T12:54:50.890Z,8908
2016-09-26T12:55:50.907Z,9008
2016-09-26T12:56:50.628Z,9072
2016-09-26T12:57:50.699Z,9040
2016-09-26T12:58:50.684Z,8960
2016-09-26T12:59:50.719Z,8880
2016-09-26T13:00:51.349Z,8568
2016-09-26T13:01:50.465Z,8520
2016-09-26T13:02:51.269Z,8444
2016-09-26T13:03:51.104Z,8316
2016-09-26T13:04:51.150Z,8432
2016-09-26T13:05:51.494Z,8540
2016-09-26T13:06:51.209Z,8552
2016-09-26T13:07:51.081Z,8412
2016-09-26T13:08:51.016Z,8672
2016-09-26T13:09:51.153Z,9204
2016-09-26T13:10:51.473Z,9648
2016-09-26T13:11:51.659Z,9976
2016-09-26T13:12:51.064Z,10224
2016-09-26T13:13:51.219Z,10368
2016-09-26T13:14:51.117Z,10304
2016-09-26T13:15:51.541Z,10088
2016-09-26T13:16:51.216Z,9908
2016-09-26T13:17:51.818Z,9668
2016-09-26T13:18:51.564Z,9540
2016-09-26T13:19:51.572Z,9460
2016-09-26T13:20:51.600Z,9244
2016-09-26T13:21:51.624Z,9024
2016-09-26T13:22:52.131Z,8860
2016-09-26T13:23:51.670Z,8568
2016-09-26T13:24:51.389Z,8288
2016-09-26T13:25:51.513Z,8088
2016-09-26T13:26:51.447Z,7896
2016-09-26T13:27:51.889Z,7744
2016-09-26T13:28:51.504Z,7656
2016-09-26T13:29:51.823Z,7612
2016-09-26T13:30:51.569Z,7284
2016-09-26T13:31:51.599Z,6628
2016-09-26T13:32:52.199Z,6044
2016-09-26T13:33:52.250Z,5652
2016-09-26T13:34:52.289Z,5416
2016-09-26T13:35:52.207Z,5364
2016-09-26T13:36:51.788Z,5436
2016-09-26T13:37:52.216Z,5496
2016-09-26T13:38:52.237Z,5464
2016-09-26T13:39:52.011Z,5500
2016-09-26T13:40:52.234Z,5692
2016-09-26T13:41:51.851Z,5840
2016-09-26T13:42:52.550Z,5940
2016-09-26T13:43:52.529Z,6140
2016-09-26T13:44:52.237Z,6324
2016-09-26T13:45:52.300Z,6312
2016-09-26T13:46:51.687Z,6184
2016-09-26T13:47:52.277Z,5780
2016-09-26T13:48:52.036Z,5080
2016-09-26T13:49:52.057Z,4248
2016-09-26T13:50:52.264Z,3660